sensor_id;sensor_type;location;lat;lon;timestamp;temperature;humidity
6421;DHT22;3243;50.958;7.012;2023-09-19T00:00:21;16.20;99.90
6421;DHT22;3243;50.958;7.012;2023-09-19T00:02:58;16.20;99.90
6421;DHT22;3243;50.958;7.012;2023-09-19T00:05:29;16.10;99.90
6421;DHT22;3243;50.958;7.012;2023-09-19T00:07:57;16.00;99.90
6421;DHT22;3243;50.958;7.012;2023-09-19T00:10:27;16.10;99.90
6421;DHT22;3243;50.958;7.012;2023-09-19T00:12:58;16.10;1.00
6421;DHT22;3243;50.958;7.012;2023-09-19T00:15:27;16.10;1.00
6421;DHT22;3243;50.958;7.012;2023-09-19T00:17:57;16.10;1.00
6421;DHT22;3243;50.958;7.012;2023-09-19T00:20:23;16.10;99.90
6421;DHT22;3243;50.958;7.012;2023-09-19T00:22:50;16.00;65.00
6421;DHT22;3243;50.958;7.012;2023-09-19T00:25:20;16.10;46.60
6421;DHT22;3243;50.958;7.012;2023-09-19T00:27:48;16.00;99.90
6421;DHT22;3243;50.958;7.012;2023-09-19T00:30:18;16.00;1.00
6421;DHT22;3243;50.958;7.012;2023-09-19T00:35:15;16.00;1.00
6421;DHT22;3243;50.958;7.012;2023-09-19T00:37:42;16.00;1.00
6421;DHT22;3243;50.958;7.012;2023-09-19T00:40:10;15.90;1.00
6421;DHT22;3243;50.958;7.012;2023-09-19T00:42:39;15.90;1.00
6421;DHT22;3243;50.958;7.012;2023-09-19T00:45:11;15.90;99.90
6421;DHT22;3243;50.958;7.012;2023-09-19T00:47:44;15.90;1.00
6421;DHT22;3243;50.958;7.012;2023-09-19T00:50:15;15.90;1.00
6421;DHT22;3243;50.958;7.012;2023-09-19T00:52:44;15.90;1.00
6421;DHT22;3243;50.958;7.012;2023-09-19T00:55:14;15.80;1.00
6421;DHT22;3243;50.958;7.012;2023-09-19T00:57:42;15.90;1.00
6421;DHT22;3243;50.958;7.012;2023-09-19T01:00:12;15.90;1.00
6421;DHT22;3243;50.958;7.012;2023-09-19T01:02:42;15.90;99.90
6421;DHT22;3243;50.958;7.012;2023-09-19T01:10:11;16.10;99.90
6421;DHT22;3243;50.958;7.012;2023-09-19T01:13:09;16.20;99.90
6421;DHT22;3243;50.958;7.012;2023-09-19T01:15:52;16.30;99.90
6421;DHT22;3243;50.958;7.012;2023-09-19T01:21:44;16.40;99.90
6421;DHT22;3243;50.958;7.012;2023-09-19T01:30:20;16.20;99.90
6421;DHT22;3243;50.958;7.012;2023-09-19T01:32:52;16.20;1.10
6421;DHT22;3243;50.958;7.012;2023-09-19T01:35:19;16.10;1.00
6421;DHT22;3243;50.958;7.012;2023-09-19T01:37:46;16.10;36.60
6421;DHT22;3243;50.958;7.012;2023-09-19T01:40:14;16.10;99.90
6421;DHT22;3243;50.958;7.012;2023-09-19T01:43:23;16.10;98.20
6421;DHT22;3243;50.958;7.012;2023-09-19T01:48:43;16.10;1.00
6421;DHT22;3243;50.958;7.012;2023-09-19T01:51:20;16.10;57.70
6421;DHT22;3243;50.958;7.012;2023-09-19T01:54:01;16.10;1.00
6421;DHT22;3243;50.958;7.012;2023-09-19T01:56:34;16.10;1.00
6421;DHT22;3243;50.958;7.012;2023-09-19T01:59:10;16.10;1.00
6421;DHT22;3243;50.958;7.012;2023-09-19T02:01:39;16.10;1.00
6421;DHT22;3243;50.958;7.012;2023-09-19T02:04:07;16.10;1.00
6421;DHT22;3243;50.958;7.012;2023-09-19T02:06:34;16.10;1.00
6421;DHT22;3243;50.958;7.012;2023-09-19T02:11:29;16.10;99.90
6421;DHT22;3243;50.958;7.012;2023-09-19T02:13:56;16.00;99.90
6421;DHT22;3243;50.958;7.012;2023-09-19T02:16:22;16.10;99.90
6421;DHT22;3243;50.958;7.012;2023-09-19T02:18:50;16.10;99.90
6421;DHT22;3243;50.958;7.012;2023-09-19T02:21:18;16.10;99.90
6421;DHT22;3243;50.958;7.012;2023-09-19T02:23:45;16.00;99.90
6421;DHT22;3243;50.958;7.012;2023-09-19T02:28:41;16.00;99.90
6421;DHT22;3243;50.958;7.012;2023-09-19T02:31:08;16.00;99.90
6421;DHT22;3243;50.958;7.012;2023-09-19T02:33:35;16.00;99.90
6421;DHT22;3243;50.958;7.012;2023-09-19T02:36:04;16.00;99.90
6421;DHT22;3243;50.958;7.012;2023-09-19T02:40:59;15.90;99.90
6421;DHT22;3243;50.958;7.012;2023-09-19T02:43:26;15.90;99.90
6421;DHT22;3243;50.958;7.012;2023-09-19T02:48:21;15.90;99.90
6421;DHT22;3243;50.958;7.012;2023-09-19T02:50:51;15.90;99.90
6421;DHT22;3243;50.958;7.012;2023-09-19T02:55:47;15.80;99.90
6421;DHT22;3243;50.958;7.012;2023-09-19T03:03:14;15.80;99.90
6421;DHT22;3243;50.958;7.012;2023-09-19T03:08:16;15.70;99.90
6421;DHT22;3243;50.958;7.012;2023-09-19T03:10:46;15.70;99.90
6421;DHT22;3243;50.958;7.012;2023-09-19T03:13:14;15.70;99.90
6421;DHT22;3243;50.958;7.012;2023-09-19T03:15:42;15.70;99.90
6421;DHT22;3243;50.958;7.012;2023-09-19T03:20:40;15.60;99.90
6421;DHT22;3243;50.958;7.012;2023-09-19T03:23:07;15.50;99.90
6421;DHT22;3243;50.958;7.012;2023-09-19T03:25:35;15.50;1.00
6421;DHT22;3243;50.958;7.012;2023-09-19T03:28:06;15.50;1.00
6421;DHT22;3243;50.958;7.012;2023-09-19T03:35:31;15.40;1.00
6421;DHT22;3243;50.958;7.012;2023-09-19T03:37:58;15.40;1.00
6421;DHT22;3243;50.958;7.012;2023-09-19T03:40:25;15.40;1.00
6421;DHT22;3243;50.958;7.012;2023-09-19T03:42:52;15.40;1.00
6421;DHT22;3243;50.958;7.012;2023-09-19T03:45:19;15.40;1.00
6421;DHT22;3243;50.958;7.012;2023-09-19T03:47:46;15.40;1.00
6421;DHT22;3243;50.958;7.012;2023-09-19T03:50:14;15.30;1.00
6421;DHT22;3243;50.958;7.012;2023-09-19T03:52:44;15.30;1.00
6421;DHT22;3243;50.958;7.012;2023-09-19T03:57:39;15.30;1.00
6421;DHT22;3243;50.958;7.012;2023-09-19T04:00:07;15.30;1.00
6421;DHT22;3243;50.958;7.012;2023-09-19T04:02:42;15.30;1.00
6421;DHT22;3243;50.958;7.012;2023-09-19T04:07:37;15.30;1.00
6421;DHT22;3243;50.958;7.012;2023-09-19T04:10:04;15.30;1.00
6421;DHT22;3243;50.958;7.012;2023-09-19T04:12:31;15.20;1.00
6421;DHT22;3243;50.958;7.012;2023-09-19T04:14:58;15.20;1.00
6421;DHT22;3243;50.958;7.012;2023-09-19T04:19:52;15.20;1.00
6421;DHT22;3243;50.958;7.012;2023-09-19T04:24:47;15.20;1.00
6421;DHT22;3243;50.958;7.012;2023-09-19T04:27:14;15.20;1.00
6421;DHT22;3243;50.958;7.012;2023-09-19T04:29:41;15.20;1.00
6421;DHT22;3243;50.958;7.012;2023-09-19T04:32:08;15.20;1.00
6421;DHT22;3243;50.958;7.012;2023-09-19T04:34:36;15.10;1.00
6421;DHT22;3243;50.958;7.012;2023-09-19T04:37:05;15.10;1.00
6421;DHT22;3243;50.958;7.012;2023-09-19T04:39:32;15.10;1.00
6421;DHT22;3243;50.958;7.012;2023-09-19T04:42:00;15.10;99.90
6421;DHT22;3243;50.958;7.012;2023-09-19T04:44:27;15.10;99.90
6421;DHT22;3243;50.958;7.012;2023-09-19T04:46:54;15.00;99.90
6421;DHT22;3243;50.958;7.012;2023-09-19T04:49:21;15.00;99.90
6421;DHT22;3243;50.958;7.012;2023-09-19T05:01:39;15.00;99.90
6421;DHT22;3243;50.958;7.012;2023-09-19T05:04:05;15.00;99.90
6421;DHT22;3243;50.958;7.012;2023-09-19T05:09:02;15.10;99.90
6421;DHT22;3243;50.958;7.012;2023-09-19T05:13:59;15.00;99.90
6421;DHT22;3243;50.958;7.012;2023-09-19T05:16:30;15.00;99.90
6421;DHT22;3243;50.958;7.012;2023-09-19T05:19:01;15.00;99.90
6421;DHT22;3243;50.958;7.012;2023-09-19T05:23:56;15.00;99.90
6421;DHT22;3243;50.958;7.012;2023-09-19T05:31:18;15.00;99.90
6421;DHT22;3243;50.958;7.012;2023-09-19T05:33:45;15.00;99.90
6421;DHT22;3243;50.958;7.012;2023-09-19T05:36:12;14.90;99.90
6421;DHT22;3243;50.958;7.012;2023-09-19T05:38:38;14.90;99.90
6421;DHT22;3243;50.958;7.012;2023-09-19T05:41:08;14.90;99.90
6421;DHT22;3243;50.958;7.012;2023-09-19T05:43:36;15.00;99.90
6421;DHT22;3243;50.958;7.012;2023-09-19T05:46:04;15.00;99.90
6421;DHT22;3243;50.958;7.012;2023-09-19T05:48:31;15.10;99.90
6421;DHT22;3243;50.958;7.012;2023-09-19T05:53:25;15.20;99.90
6421;DHT22;3243;50.958;7.012;2023-09-19T05:55:52;15.30;99.90
6421;DHT22;3243;50.958;7.012;2023-09-19T05:58:20;15.30;99.90
6421;DHT22;3243;50.958;7.012;2023-09-19T06:00:47;15.30;99.90
6421;DHT22;3243;50.958;7.012;2023-09-19T06:03:15;15.30;99.90
6421;DHT22;3243;50.958;7.012;2023-09-19T06:05:44;15.40;99.90
6421;DHT22;3243;50.958;7.012;2023-09-19T06:08:12;15.50;99.90
6421;DHT22;3243;50.958;7.012;2023-09-19T06:13:07;15.60;99.90
6421;DHT22;3243;50.958;7.012;2023-09-19T06:20:31;15.60;99.90
6421;DHT22;3243;50.958;7.012;2023-09-19T06:23:00;15.60;99.90
6421;DHT22;3243;50.958;7.012;2023-09-19T06:27:56;15.70;99.90
6421;DHT22;3243;50.958;7.012;2023-09-19T06:30:24;15.70;99.90
6421;DHT22;3243;50.958;7.012;2023-09-19T06:32:59;15.80;99.90
6421;DHT22;3243;50.958;7.012;2023-09-19T06:35:26;15.80;99.90
6421;DHT22;3243;50.958;7.012;2023-09-19T06:40:25;15.90;99.90
6421;DHT22;3243;50.958;7.012;2023-09-19T06:42:52;16.00;99.90
6421;DHT22;3243;50.958;7.012;2023-09-19T06:45:20;16.00;99.90
6421;DHT22;3243;50.958;7.012;2023-09-19T06:47:50;16.00;99.90
6421;DHT22;3243;50.958;7.012;2023-09-19T06:50:22;16.00;99.90
6421;DHT22;3243;50.958;7.012;2023-09-19T06:52:51;16.10;99.90
6421;DHT22;3243;50.958;7.012;2023-09-19T06:55:19;16.20;76.60
6421;DHT22;3243;50.958;7.012;2023-09-19T06:57:47;16.20;66.20
6421;DHT22;3243;50.958;7.012;2023-09-19T07:00:15;16.40;96.80
6421;DHT22;3243;50.958;7.012;2023-09-19T07:02:45;16.40;97.10
6421;DHT22;3243;50.958;7.012;2023-09-19T07:05:12;16.50;41.00
6421;DHT22;3243;50.958;7.012;2023-09-19T07:07:39;16.60;39.90
6421;DHT22;3243;50.958;7.012;2023-09-19T07:10:07;16.70;18.50
6421;DHT22;3243;50.958;7.012;2023-09-19T07:12:37;16.70;54.50
6421;DHT22;3243;50.958;7.012;2023-09-19T07:15:04;16.80;3.70
6421;DHT22;3243;50.958;7.012;2023-09-19T07:17:32;16.90;8.90
6421;DHT22;3243;50.958;7.012;2023-09-19T07:20:00;16.80;16.70
6421;DHT22;3243;50.958;7.012;2023-09-19T07:22:27;16.90;1.00
6421;DHT22;3243;50.958;7.012;2023-09-19T07:24:54;17.00;1.00
6421;DHT22;3243;50.958;7.012;2023-09-19T07:32:19;17.10;1.00
6421;DHT22;3243;50.958;7.012;2023-09-19T07:34:47;17.00;1.00
6421;DHT22;3243;50.958;7.012;2023-09-19T07:37:14;17.10;1.00
6421;DHT22;3243;50.958;7.012;2023-09-19T07:39:42;17.20;1.00
6421;DHT22;3243;50.958;7.012;2023-09-19T07:44:38;17.20;1.00
6421;DHT22;3243;50.958;7.012;2023-09-19T07:47:05;17.30;1.00
6421;DHT22;3243;50.958;7.012;2023-09-19T07:49:31;17.30;1.00
6421;DHT22;3243;50.958;7.012;2023-09-19T07:51:58;17.40;1.00
6421;DHT22;3243;50.958;7.012;2023-09-19T07:54:25;17.50;1.00
6421;DHT22;3243;50.958;7.012;2023-09-19T07:56:56;17.60;1.00
6421;DHT22;3243;50.958;7.012;2023-09-19T07:59:24;17.60;1.00
6421;DHT22;3243;50.958;7.012;2023-09-19T08:01:51;17.70;1.00
6421;DHT22;3243;50.958;7.012;2023-09-19T08:04:18;17.80;1.00
6421;DHT22;3243;50.958;7.012;2023-09-19T08:06:45;17.90;1.00
6421;DHT22;3243;50.958;7.012;2023-09-19T08:11:51;17.90;1.00
6421;DHT22;3243;50.958;7.012;2023-09-19T08:14:18;18.00;1.00
6421;DHT22;3243;50.958;7.012;2023-09-19T08:16:45;18.10;1.00
6421;DHT22;3243;50.958;7.012;2023-09-19T08:19:12;18.10;1.00
6421;DHT22;3243;50.958;7.012;2023-09-19T08:21:38;18.10;1.00
6421;DHT22;3243;50.958;7.012;2023-09-19T08:24:05;18.30;1.00
6421;DHT22;3243;50.958;7.012;2023-09-19T08:41:22;19.00;1.00
6421;DHT22;3243;50.958;7.012;2023-09-19T08:43:49;19.10;1.00
6421;DHT22;3243;50.958;7.012;2023-09-19T08:46:21;19.20;1.00
6421;DHT22;3243;50.958;7.012;2023-09-19T08:49:12;19.20;1.00
6421;DHT22;3243;50.958;7.012;2023-09-19T08:51:45;19.00;1.00
6421;DHT22;3243;50.958;7.012;2023-09-19T08:54:22;19.00;1.00
6421;DHT22;3243;50.958;7.012;2023-09-19T08:56:54;19.10;1.00
6421;DHT22;3243;50.958;7.012;2023-09-19T09:01:51;19.40;1.00
6421;DHT22;3243;50.958;7.012;2023-09-19T09:04:22;19.30;1.00
6421;DHT22;3243;50.958;7.012;2023-09-19T09:06:50;19.30;1.00
6421;DHT22;3243;50.958;7.012;2023-09-19T09:09:20;19.30;1.00
6421;DHT22;3243;50.958;7.012;2023-09-19T09:11:48;19.40;1.00
6421;DHT22;3243;50.958;7.012;2023-09-19T09:14:20;19.30;1.00
6421;DHT22;3243;50.958;7.012;2023-09-19T09:16:47;19.30;1.00
6421;DHT22;3243;50.958;7.012;2023-09-19T09:21:51;19.20;1.00
6421;DHT22;3243;50.958;7.012;2023-09-19T09:26:56;19.00;1.00
6421;DHT22;3243;50.958;7.012;2023-09-19T09:29:46;19.20;1.00
6421;DHT22;3243;50.958;7.012;2023-09-19T09:35:00;19.20;1.00
6421;DHT22;3243;50.958;7.012;2023-09-19T09:37:28;19.40;1.00
6421;DHT22;3243;50.958;7.012;2023-09-19T09:40:02;19.50;1.00
6421;DHT22;3243;50.958;7.012;2023-09-19T09:45:21;19.80;1.00
6421;DHT22;3243;50.958;7.012;2023-09-19T09:48:09;19.80;1.00
6421;DHT22;3243;50.958;7.012;2023-09-19T09:50:51;19.70;1.00
6421;DHT22;3243;50.958;7.012;2023-09-19T09:53:26;19.70;1.00
6421;DHT22;3243;50.958;7.012;2023-09-19T09:56:06;19.70;1.00
6421;DHT22;3243;50.958;7.012;2023-09-19T09:58:50;19.80;1.00
6421;DHT22;3243;50.958;7.012;2023-09-19T10:01:20;20.00;1.00
6421;DHT22;3243;50.958;7.012;2023-09-19T10:03:48;20.10;1.00
6421;DHT22;3243;50.958;7.012;2023-09-19T10:06:16;20.20;1.00
6421;DHT22;3243;50.958;7.012;2023-09-19T10:09:05;20.20;1.00
6421;DHT22;3243;50.958;7.012;2023-09-19T10:11:48;20.20;1.00
6421;DHT22;3243;50.958;7.012;2023-09-19T10:14:27;20.40;1.00
6421;DHT22;3243;50.958;7.012;2023-09-19T10:19:37;20.30;1.00
6421;DHT22;3243;50.958;7.012;2023-09-19T10:22:05;20.50;1.00
6421;DHT22;3243;50.958;7.012;2023-09-19T10:24:35;20.70;1.00
6421;DHT22;3243;50.958;7.012;2023-09-19T10:27:19;20.80;1.00
6421;DHT22;3243;50.958;7.012;2023-09-19T10:29:49;20.90;1.00
6421;DHT22;3243;50.958;7.012;2023-09-19T10:32:22;20.90;1.00
6421;DHT22;3243;50.958;7.012;2023-09-19T10:34:50;20.70;1.00
6421;DHT22;3243;50.958;7.012;2023-09-19T10:37:24;20.80;1.00
6421;DHT22;3243;50.958;7.012;2023-09-19T10:39:53;21.10;1.00
6421;DHT22;3243;50.958;7.012;2023-09-19T10:42:23;20.90;1.00
6421;DHT22;3243;50.958;7.012;2023-09-19T10:44:55;20.80;1.00
6421;DHT22;3243;50.958;7.012;2023-09-19T10:47:27;20.80;1.00
6421;DHT22;3243;50.958;7.012;2023-09-19T10:52:23;20.70;1.00
6421;DHT22;3243;50.958;7.012;2023-09-19T10:54:54;20.80;1.00
6421;DHT22;3243;50.958;7.012;2023-09-19T10:57:24;20.90;1.00
6421;DHT22;3243;50.958;7.012;2023-09-19T11:00:07;20.90;1.00
6421;DHT22;3243;50.958;7.012;2023-09-19T11:05:40;21.00;1.00
6421;DHT22;3243;50.958;7.012;2023-09-19T11:08:08;21.00;1.00
6421;DHT22;3243;50.958;7.012;2023-09-19T11:10:48;21.20;1.00
6421;DHT22;3243;50.958;7.012;2023-09-19T11:13:34;21.20;1.00
6421;DHT22;3243;50.958;7.012;2023-09-19T11:16:04;21.20;1.00
6421;DHT22;3243;50.958;7.012;2023-09-19T11:31:53;21.40;1.00
6421;DHT22;3243;50.958;7.012;2023-09-19T11:48:18;21.60;1.00
6421;DHT22;3243;50.958;7.012;2023-09-19T11:53:14;21.70;1.00
6421;DHT22;3243;50.958;7.012;2023-09-19T11:55:42;21.80;1.00
6421;DHT22;3243;50.958;7.012;2023-09-19T11:58:10;21.90;1.00
6421;DHT22;3243;50.958;7.012;2023-09-19T12:00:42;22.00;1.00
6421;DHT22;3243;50.958;7.012;2023-09-19T12:03:12;22.20;1.00
6421;DHT22;3243;50.958;7.012;2023-09-19T12:08:08;22.40;1.00
6421;DHT22;3243;50.958;7.012;2023-09-19T12:10:49;22.50;1.00
6421;DHT22;3243;50.958;7.012;2023-09-19T12:13:17;22.30;1.00
6421;DHT22;3243;50.958;7.012;2023-09-19T12:15:45;22.10;1.00
6421;DHT22;3243;50.958;7.012;2023-09-19T12:18:30;21.90;1.00
6421;DHT22;3243;50.958;7.012;2023-09-19T12:20:57;21.60;1.00
6421;DHT22;3243;50.958;7.012;2023-09-19T12:28:27;21.00;1.00
6421;DHT22;3243;50.958;7.012;2023-09-19T12:31:06;20.90;1.00
6421;DHT22;3243;50.958;7.012;2023-09-19T12:36:22;20.90;1.00
6421;DHT22;3243;50.958;7.012;2023-09-19T12:38:58;20.80;1.00
6421;DHT22;3243;50.958;7.012;2023-09-19T12:41:28;20.80;1.00
6421;DHT22;3243;50.958;7.012;2023-09-19T12:43:55;20.80;1.00
6421;DHT22;3243;50.958;7.012;2023-09-19T12:46:23;20.90;1.00
6421;DHT22;3243;50.958;7.012;2023-09-19T12:49:15;21.00;1.00
6421;DHT22;3243;50.958;7.012;2023-09-19T12:51:45;21.00;1.00
6421;DHT22;3243;50.958;7.012;2023-09-19T12:56:42;21.10;1.00
6421;DHT22;3243;50.958;7.012;2023-09-19T12:59:14;21.20;1.00
6421;DHT22;3243;50.958;7.012;2023-09-19T13:01:42;21.20;1.00
6421;DHT22;3243;50.958;7.012;2023-09-19T13:04:21;21.20;1.00
6421;DHT22;3243;50.958;7.012;2023-09-19T13:06:55;21.20;1.00
6421;DHT22;3243;50.958;7.012;2023-09-19T13:09:27;21.10;1.00
6421;DHT22;3243;50.958;7.012;2023-09-19T13:12:34;21.10;1.00
6421;DHT22;3243;50.958;7.012;2023-09-19T13:15:13;21.10;1.00
6421;DHT22;3243;50.958;7.012;2023-09-19T13:17:47;21.20;1.00
6421;DHT22;3243;50.958;7.012;2023-09-19T13:20:26;21.20;1.00
6421;DHT22;3243;50.958;7.012;2023-09-19T13:22:59;21.20;1.00
6421;DHT22;3243;50.958;7.012;2023-09-19T13:25:38;21.40;1.00
6421;DHT22;3243;50.958;7.012;2023-09-19T13:30:37;21.40;1.00
6421;DHT22;3243;50.958;7.012;2023-09-19T13:33:10;21.40;1.00
6421;DHT22;3243;50.958;7.012;2023-09-19T13:35:38;21.20;1.00
6421;DHT22;3243;50.958;7.012;2023-09-19T13:38:07;21.30;1.00
6421;DHT22;3243;50.958;7.012;2023-09-19T13:43:06;21.40;1.00
6421;DHT22;3243;50.958;7.012;2023-09-19T13:45:33;21.40;1.00
6421;DHT22;3243;50.958;7.012;2023-09-19T13:48:00;21.50;1.00
6421;DHT22;3243;50.958;7.012;2023-09-19T14:00:23;21.50;1.00
6421;DHT22;3243;50.958;7.012;2023-09-19T14:02:50;21.50;1.00
6421;DHT22;3243;50.958;7.012;2023-09-19T14:10:14;21.70;1.00
6421;DHT22;3243;50.958;7.012;2023-09-19T14:12:44;21.70;1.00
6421;DHT22;3243;50.958;7.012;2023-09-19T14:15:11;21.70;1.00
6421;DHT22;3243;50.958;7.012;2023-09-19T14:17:39;21.70;1.00
6421;DHT22;3243;50.958;7.012;2023-09-19T14:20:09;21.80;1.00
6421;DHT22;3243;50.958;7.012;2023-09-19T14:25:05;21.80;1.00
6421;DHT22;3243;50.958;7.012;2023-09-19T14:27:32;21.70;1.00
6421;DHT22;3243;50.958;7.012;2023-09-19T14:32:26;21.50;1.00
6421;DHT22;3243;50.958;7.012;2023-09-19T14:34:52;21.30;1.00
6421;DHT22;3243;50.958;7.012;2023-09-19T14:39:49;21.40;1.00
6421;DHT22;3243;50.958;7.012;2023-09-19T14:42:16;21.20;1.00
6421;DHT22;3243;50.958;7.012;2023-09-19T14:44:44;21.20;1.00
6421;DHT22;3243;50.958;7.012;2023-09-19T14:52:09;21.40;1.00
6421;DHT22;3243;50.958;7.012;2023-09-19T14:57:04;21.30;1.00
6421;DHT22;3243;50.958;7.012;2023-09-19T14:59:31;21.30;1.00
6421;DHT22;3243;50.958;7.012;2023-09-19T15:01:58;21.40;1.00
6421;DHT22;3243;50.958;7.012;2023-09-19T15:04:27;21.40;1.00
6421;DHT22;3243;50.958;7.012;2023-09-19T15:09:23;21.40;1.00
6421;DHT22;3243;50.958;7.012;2023-09-19T15:11:53;21.30;1.00
6421;DHT22;3243;50.958;7.012;2023-09-19T15:14:20;21.30;1.00
6421;DHT22;3243;50.958;7.012;2023-09-19T15:19:15;21.00;1.00
6421;DHT22;3243;50.958;7.012;2023-09-19T15:29:09;20.80;1.00
6421;DHT22;3243;50.958;7.012;2023-09-19T15:34:04;20.80;1.00
6421;DHT22;3243;50.958;7.012;2023-09-19T15:36:33;20.90;1.00
6421;DHT22;3243;50.958;7.012;2023-09-19T15:39:05;20.80;1.00
6421;DHT22;3243;50.958;7.012;2023-09-19T15:41:39;20.80;1.00
6421;DHT22;3243;50.958;7.012;2023-09-19T15:44:14;20.80;1.00
6421;DHT22;3243;50.958;7.012;2023-09-19T15:46:42;20.80;1.00
6421;DHT22;3243;50.958;7.012;2023-09-19T15:49:10;20.80;1.00
6421;DHT22;3243;50.958;7.012;2023-09-19T15:51:37;20.80;1.00
6421;DHT22;3243;50.958;7.012;2023-09-19T15:54:09;20.70;1.00
6421;DHT22;3243;50.958;7.012;2023-09-19T15:56:37;20.80;1.00
6421;DHT22;3243;50.958;7.012;2023-09-19T16:01:31;20.70;1.00
6421;DHT22;3243;50.958;7.012;2023-09-19T16:03:58;20.70;1.00
6421;DHT22;3243;50.958;7.012;2023-09-19T16:06:27;20.70;1.00
6421;DHT22;3243;50.958;7.012;2023-09-19T16:08:59;20.70;1.00
6421;DHT22;3243;50.958;7.012;2023-09-19T16:11:27;20.70;1.00
6421;DHT22;3243;50.958;7.012;2023-09-19T16:13:54;20.80;1.00
6421;DHT22;3243;50.958;7.012;2023-09-19T16:16:23;20.70;1.00
6421;DHT22;3243;50.958;7.012;2023-09-19T16:18:54;20.80;1.00
6421;DHT22;3243;50.958;7.012;2023-09-19T16:21:24;20.80;1.00
6421;DHT22;3243;50.958;7.012;2023-09-19T16:23:54;20.80;1.00
6421;DHT22;3243;50.958;7.012;2023-09-19T16:26:22;20.80;1.00
6421;DHT22;3243;50.958;7.012;2023-09-19T16:28:52;20.80;1.00
6421;DHT22;3243;50.958;7.012;2023-09-19T16:31:19;20.60;1.00
6421;DHT22;3243;50.958;7.012;2023-09-19T16:33:47;20.60;1.00
6421;DHT22;3243;50.958;7.012;2023-09-19T16:36:18;20.50;1.00
6421;DHT22;3243;50.958;7.012;2023-09-19T16:38:47;20.50;1.00
6421;DHT22;3243;50.958;7.012;2023-09-19T16:46:11;20.40;1.00
6421;DHT22;3243;50.958;7.012;2023-09-19T16:48:40;20.30;1.00
6421;DHT22;3243;50.958;7.012;2023-09-19T16:51:26;20.20;1.00
6421;DHT22;3243;50.958;7.012;2023-09-19T16:53:56;20.20;1.00
6421;DHT22;3243;50.958;7.012;2023-09-19T16:58:51;20.10;1.00
6421;DHT22;3243;50.958;7.012;2023-09-19T17:01:19;20.00;1.00
6421;DHT22;3243;50.958;7.012;2023-09-19T17:06:16;21.20;1.00
6421;DHT22;3243;50.958;7.012;2023-09-19T17:08:45;19.90;1.00
6421;DHT22;3243;50.958;7.012;2023-09-19T17:11:14;19.80;1.00
6421;DHT22;3243;50.958;7.012;2023-09-19T17:13:44;19.70;1.00
6421;DHT22;3243;50.958;7.012;2023-09-19T17:16:15;19.60;1.00
6421;DHT22;3243;50.958;7.012;2023-09-19T17:18:51;19.60;1.00
6421;DHT22;3243;50.958;7.012;2023-09-19T17:21:18;19.50;1.00
6421;DHT22;3243;50.958;7.012;2023-09-19T17:23:45;19.50;1.00
6421;DHT22;3243;50.958;7.012;2023-09-19T17:26:13;19.50;1.00
6421;DHT22;3243;50.958;7.012;2023-09-19T17:28:41;19.40;1.00
6421;DHT22;3243;50.958;7.012;2023-09-19T17:31:13;19.40;1.00
6421;DHT22;3243;50.958;7.012;2023-09-19T17:33:42;19.40;1.00
6421;DHT22;3243;50.958;7.012;2023-09-19T17:36:26;19.30;1.00
6421;DHT22;3243;50.958;7.012;2023-09-19T17:38:55;19.30;1.00
6421;DHT22;3243;50.958;7.012;2023-09-19T17:41:26;19.20;1.00
6421;DHT22;3243;50.958;7.012;2023-09-19T17:43:54;19.30;1.00
6421;DHT22;3243;50.958;7.012;2023-09-19T17:46:22;19.20;1.00
6421;DHT22;3243;50.958;7.012;2023-09-19T17:48:58;19.10;1.00
6421;DHT22;3243;50.958;7.012;2023-09-19T17:51:26;19.10;1.00
6421;DHT22;3243;50.958;7.012;2023-09-19T17:53:56;19.10;1.00
6421;DHT22;3243;50.958;7.012;2023-09-19T17:56:27;19.10;1.00
6421;DHT22;3243;50.958;7.012;2023-09-19T18:01:24;19.10;1.00
6421;DHT22;3243;50.958;7.012;2023-09-19T18:03:56;19.10;1.00
6421;DHT22;3243;50.958;7.012;2023-09-19T18:06:26;19.10;1.00
6421;DHT22;3243;50.958;7.012;2023-09-19T18:13:52;19.10;1.00
6421;DHT22;3243;50.958;7.012;2023-09-19T18:16:22;19.00;1.00
6421;DHT22;3243;50.958;7.012;2023-09-19T18:18:52;19.00;1.00
6421;DHT22;3243;50.958;7.012;2023-09-19T18:23:55;19.00;1.00
6421;DHT22;3243;50.958;7.012;2023-09-19T18:26:23;18.90;1.00
6421;DHT22;3243;50.958;7.012;2023-09-19T18:38:44;18.90;1.00
6421;DHT22;3243;50.958;7.012;2023-09-19T18:41:15;18.90;1.00
6421;DHT22;3243;50.958;7.012;2023-09-19T18:43:42;18.90;1.00
6421;DHT22;3243;50.958;7.012;2023-09-19T18:46:09;18.80;1.00
6421;DHT22;3243;50.958;7.012;2023-09-19T18:48:39;18.80;1.00
6421;DHT22;3243;50.958;7.012;2023-09-19T18:51:12;18.80;1.00
6421;DHT22;3243;50.958;7.012;2023-09-19T18:53:41;18.90;1.00
6421;DHT22;3243;50.958;7.012;2023-09-19T18:56:13;18.80;1.00
6421;DHT22;3243;50.958;7.012;2023-09-19T19:01:11;18.80;1.00
6421;DHT22;3243;50.958;7.012;2023-09-19T19:03:39;18.90;1.00
6421;DHT22;3243;50.958;7.012;2023-09-19T19:06:10;18.90;1.00
6421;DHT22;3243;50.958;7.012;2023-09-19T19:08:37;18.90;1.00
6421;DHT22;3243;50.958;7.012;2023-09-19T19:11:10;18.90;1.00
6421;DHT22;3243;50.958;7.012;2023-09-19T19:13:38;18.80;1.00
6421;DHT22;3243;50.958;7.012;2023-09-19T19:16:05;18.90;1.00
6421;DHT22;3243;50.958;7.012;2023-09-19T19:18:38;18.90;1.00
6421;DHT22;3243;50.958;7.012;2023-09-19T19:21:07;18.90;1.00
6421;DHT22;3243;50.958;7.012;2023-09-19T19:23:36;18.90;1.00
6421;DHT22;3243;50.958;7.012;2023-09-19T19:26:04;18.90;1.00
6421;DHT22;3243;50.958;7.012;2023-09-19T19:28:32;18.80;1.00
6421;DHT22;3243;50.958;7.012;2023-09-19T19:30:59;18.90;1.00
6421;DHT22;3243;50.958;7.012;2023-09-19T19:33:26;18.90;1.00
6421;DHT22;3243;50.958;7.012;2023-09-19T19:36:06;18.80;1.00
6421;DHT22;3243;50.958;7.012;2023-09-19T19:38:34;18.80;1.00
6421;DHT22;3243;50.958;7.012;2023-09-19T19:41:01;18.80;1.00
6421;DHT22;3243;50.958;7.012;2023-09-19T19:43:28;18.80;1.00
6421;DHT22;3243;50.958;7.012;2023-09-19T19:45:59;18.80;1.00
6421;DHT22;3243;50.958;7.012;2023-09-19T19:48:27;18.70;1.00
6421;DHT22;3243;50.958;7.012;2023-09-19T19:53:26;18.70;1.00
6421;DHT22;3243;50.958;7.012;2023-09-19T19:55:53;18.70;1.00
6421;DHT22;3243;50.958;7.012;2023-09-19T19:58:20;18.70;1.00
6421;DHT22;3243;50.958;7.012;2023-09-19T20:00:48;18.70;1.00
6421;DHT22;3243;50.958;7.012;2023-09-19T20:08:15;18.70;1.00
6421;DHT22;3243;50.958;7.012;2023-09-19T20:13:10;18.70;1.00
6421;DHT22;3243;50.958;7.012;2023-09-19T20:15:37;18.70;1.00
6421;DHT22;3243;50.958;7.012;2023-09-19T20:18:07;18.70;1.00
6421;DHT22;3243;50.958;7.012;2023-09-19T20:20:40;18.60;1.00
6421;DHT22;3243;50.958;7.012;2023-09-19T20:23:07;18.60;1.00
6421;DHT22;3243;50.958;7.012;2023-09-19T20:25:35;18.60;1.00
6421;DHT22;3243;50.958;7.012;2023-09-19T20:28:05;18.60;1.00
6421;DHT22;3243;50.958;7.012;2023-09-19T20:30:33;18.60;1.00
6421;DHT22;3243;50.958;7.012;2023-09-19T20:35:28;18.60;1.00
6421;DHT22;3243;50.958;7.012;2023-09-19T20:37:55;18.60;1.00
6421;DHT22;3243;50.958;7.012;2023-09-19T20:40:27;18.50;1.00
6421;DHT22;3243;50.958;7.012;2023-09-19T20:45:21;18.50;1.00
6421;DHT22;3243;50.958;7.012;2023-09-19T20:47:50;18.40;1.00
6421;DHT22;3243;50.958;7.012;2023-09-19T20:50:18;18.40;1.00
6421;DHT22;3243;50.958;7.012;2023-09-19T20:55:12;18.50;1.00
6421;DHT22;3243;50.958;7.012;2023-09-19T20:57:39;18.40;1.00
6421;DHT22;3243;50.958;7.012;2023-09-19T21:00:07;18.40;1.00
6421;DHT22;3243;50.958;7.012;2023-09-19T21:02:35;18.50;1.00
6421;DHT22;3243;50.958;7.012;2023-09-19T21:07:31;18.50;1.00
6421;DHT22;3243;50.958;7.012;2023-09-19T21:12:26;18.50;1.00
6421;DHT22;3243;50.958;7.012;2023-09-19T21:17:22;18.40;1.00
6421;DHT22;3243;50.958;7.012;2023-09-19T21:19:50;18.40;1.00
6421;DHT22;3243;50.958;7.012;2023-09-19T21:24:47;18.40;1.00